createdAt,value
2022-08-23T00:02:06.883Z,99777.90
2022-08-23T00:04:50.861Z,99780.38
2022-08-23T00:07:32.373Z,99778.23
2022-08-23T00:10:15.274Z,99775.45
2022-08-23T00:12:43.139Z,99774.07
2022-08-23T00:15:12.905Z,99771.47
2022-08-23T00:17:41.675Z,99770.55
2022-08-23T00:20:12.397Z,99769.14
2022-08-23T00:22:40.227Z,99765.55
2022-08-23T00:25:10.087Z,99763.75
2022-08-23T00:27:38.287Z,99768.89
2022-08-23T00:30:09.536Z,99771.02
2022-08-23T00:32:38.296Z,99771.36
2022-08-23T00:35:10.554Z,99773.23
2022-08-23T00:37:38.332Z,99775.59
2022-08-23T00:40:09.171Z,99777.89
2022-08-23T00:43:12.286Z,99776.20
2022-08-23T00:46:23.287Z,99774.14
2022-08-23T00:49:00.518Z,99774.80
2022-08-23T00:51:46.855Z,99772.59
2022-08-23T00:54:23.981Z,99769.59
2022-08-23T00:56:52.121Z,99765.99
2022-08-23T00:59:20.425Z,99768.84
2022-08-23T01:01:48.645Z,99769.40
2022-08-23T01:04:17.052Z,99770.43
2022-08-23T01:06:58.888Z,99770.27
2022-08-23T01:09:26.604Z,99766.06
2022-08-23T01:12:32.946Z,99763.94
2022-08-23T01:15:18.723Z,99760.67
2022-08-23T01:17:56.605Z,99758.71
2022-08-23T01:20:27.062Z,99765.27
2022-08-23T01:23:24.101Z,99763.59
2022-08-23T01:26:00.852Z,99761.68
2022-08-23T01:28:27.742Z,99760.67
2022-08-23T01:30:54.960Z,99762.65
2022-08-23T01:33:21.987Z,99762.65
2022-08-23T01:35:53.797Z,99763.16
2022-08-23T01:38:21.911Z,99761.01
2022-08-23T01:40:50.417Z,99762.20
2022-08-23T01:43:20.976Z,99765.05
2022-08-23T01:45:49.602Z,99767.90
2022-08-23T01:48:17.305Z,99766.51
2022-08-23T01:50:44.819Z,99766.60
2022-08-23T01:53:13.431Z,99768.36
2022-08-23T01:56:42.443Z,99761.34
2022-08-23T01:59:12.072Z,99757.58
2022-08-23T02:01:39.085Z,99755.37
2022-08-23T02:04:07.162Z,99754.14
2022-08-23T02:06:34.125Z,99757.41
2022-08-23T02:09:01.073Z,99762.95
2022-08-23T02:11:38.281Z,99762.09
2022-08-23T02:14:08.406Z,99761.33
2022-08-23T02:16:41.750Z,99761.01
2022-08-23T02:19:11.664Z,99761.81
2022-08-23T02:21:39.187Z,99758.85
2022-08-23T02:24:10.679Z,99757.18
2022-08-23T02:26:46.290Z,99763.84
2022-08-23T02:29:14.879Z,99766.81
2022-08-23T02:31:43.830Z,99767.80
2022-08-23T02:34:13.273Z,99762.37
2022-08-23T02:36:41.751Z,99765.34
2022-08-23T02:39:09.822Z,99765.76
2022-08-23T02:41:37.960Z,99768.51
2022-08-23T02:44:05.013Z,99765.91
2022-08-23T02:46:31.697Z,99766.21
2022-08-23T02:48:58.505Z,99767.63
2022-08-23T02:51:25.755Z,99773.21
2022-08-23T02:53:52.515Z,99773.99
2022-08-23T02:56:21.889Z,99771.02
2022-08-23T02:58:54.230Z,99771.77
2022-08-23T03:01:28.088Z,99764.30
2022-08-23T03:03:57.100Z,99765.09
2022-08-23T03:06:26.516Z,99765.48
2022-08-23T03:08:54.949Z,99765.23
2022-08-23T03:11:23.148Z,99765.17
2022-08-23T03:13:50.863Z,99762.47
2022-08-23T03:16:19.053Z,99760.78
2022-08-23T03:18:47.170Z,99761.76
2022-08-23T03:21:15.121Z,99767.77
2022-08-23T03:23:42.345Z,99765.82
2022-08-23T03:26:11.786Z,99767.95
2022-08-23T03:28:41.570Z,99770.13
2022-08-23T03:31:09.831Z,99769.56
2022-08-23T03:33:37.791Z,99771.97
2022-08-23T03:36:06.968Z,99771.30
2022-08-23T03:38:38.914Z,99771.56
2022-08-23T03:41:07.527Z,99776.89
2022-08-23T03:43:35.514Z,99775.63
2022-08-23T03:46:07.019Z,99779.28
2022-08-23T03:48:37.131Z,99779.12
2022-08-23T03:51:04.199Z,99780.59
2022-08-23T03:53:33.483Z,99784.67
2022-08-23T03:56:00.360Z,99786.17
2022-08-23T03:58:29.223Z,99790.35
2022-08-23T04:00:58.571Z,99790.30
2022-08-23T04:03:27.869Z,99788.77
2022-08-23T04:05:54.799Z,99789.23
2022-08-23T04:08:33.267Z,99788.33
2022-08-23T04:11:01.702Z,99788.74
2022-08-23T04:13:29.593Z,99790.96
2022-08-23T04:15:57.505Z,99788.27
2022-08-23T04:18:24.592Z,99788.70
2022-08-23T04:20:53.945Z,99789.70
2022-08-23T04:23:20.769Z,99788.34
2022-08-23T04:25:48.009Z,99782.17
2022-08-23T04:28:15.327Z,99783.55
2022-08-23T04:30:43.530Z,99781.58
2022-08-23T04:33:17.880Z,99779.58
2022-08-23T04:35:45.849Z,99784.42
2022-08-23T04:38:18.172Z,99782.58
2022-08-23T04:41:11.550Z,99785.67
2022-08-23T04:43:39.954Z,99787.20
2022-08-23T04:46:07.200Z,99789.66
2022-08-23T04:48:35.049Z,99789.82
2022-08-23T04:51:03.106Z,99791.33
2022-08-23T04:53:29.997Z,99792.27
2022-08-23T04:55:56.819Z,99793.02
2022-08-23T04:58:24.347Z,99793.78
2022-08-23T05:00:52.327Z,99796.83
2022-08-23T05:03:19.577Z,99801.42
2022-08-23T05:05:49.562Z,99809.34
2022-08-23T05:08:27.035Z,99808.88
2022-08-23T05:11:12.896Z,99808.71
2022-08-23T05:13:40.363Z,99801.98
2022-08-23T05:16:07.506Z,99799.06
2022-08-23T05:18:34.550Z,99801.05
2022-08-23T05:21:01.813Z,99802.59
2022-08-23T05:23:32.297Z,99804.21
2022-08-23T05:26:00.345Z,99809.47
2022-08-23T05:28:32.219Z,99813.40
2022-08-23T05:31:11.978Z,99818.14
2022-08-23T05:33:40.761Z,99821.41
2022-08-23T05:36:09.550Z,99822.01
2022-08-23T05:38:37.902Z,99825.55
2022-08-23T05:41:07.038Z,99823.09
2022-08-23T05:43:35.071Z,99822.95
2022-08-23T05:46:12.983Z,99822.95
2022-08-23T05:48:42.975Z,99822.15
2022-08-23T05:51:27.844Z,99821.13
2022-08-23T05:53:59.341Z,99818.18
2022-08-23T05:56:32.926Z,99822.61
2022-08-23T05:59:07.697Z,99822.88
2022-08-23T06:02:40.674Z,99823.04
2022-08-23T06:05:09.018Z,99825.61
2022-08-23T06:07:50.509Z,99830.19
2022-08-23T06:10:20.210Z,99834.17
2022-08-23T06:12:48.501Z,99833.30
2022-08-23T06:15:16.012Z,99835.75
2022-08-23T06:17:59.763Z,99834.79
2022-08-23T06:20:36.773Z,99836.25
2022-08-23T06:23:08.549Z,99836.18
2022-08-23T06:25:39.391Z,99839.44
2022-08-23T06:28:09.754Z,99837.11
2022-08-23T06:30:44.474Z,99839.73
2022-08-23T06:33:26.368Z,99834.83
2022-08-23T06:36:26.441Z,99834.70
2022-08-23T06:38:54.630Z,99832.79
2022-08-23T06:41:25.027Z,99832.22
2022-08-23T06:43:52.105Z,99829.73
2022-08-23T06:46:23.483Z,99831.13
2022-08-23T06:48:52.996Z,99827.54
2022-08-23T06:51:27.261Z,99829.63
2022-08-23T06:54:04.175Z,99835.55
2022-08-23T06:56:35.242Z,99834.70
2022-08-23T06:59:06.176Z,99836.73
2022-08-23T07:01:45.498Z,99836.71
2022-08-23T07:04:22.427Z,99837.73
2022-08-23T07:07:37.360Z,99835.85
2022-08-23T07:10:10.799Z,99834.11
2022-08-23T07:12:44.212Z,99834.74
2022-08-23T07:15:12.609Z,99835.88
2022-08-23T07:17:40.064Z,99833.70
2022-08-23T07:20:07.510Z,99834.51
2022-08-23T07:22:34.432Z,99832.27
2022-08-23T07:25:08.765Z,99834.35
2022-08-23T07:27:35.768Z,99834.02
2022-08-23T07:30:06.660Z,99832.73
2022-08-23T07:32:34.078Z,99828.71
2022-08-23T07:35:01.374Z,99831.67
2022-08-23T07:37:30.517Z,99838.14
2022-08-23T07:40:00.632Z,99836.70
2022-08-23T07:42:30.361Z,99843.40
2022-08-23T07:44:57.835Z,99844.91
2022-08-23T07:47:24.808Z,99847.50
2022-08-23T07:50:00.999Z,99850.10
2022-08-23T07:52:29.949Z,99853.23
2022-08-23T07:54:56.652Z,99849.64
2022-08-23T07:57:24.148Z,99847.20
2022-08-23T07:59:50.924Z,99852.09
2022-08-23T08:02:18.207Z,99854.13
2022-08-23T08:04:48.581Z,99855.83
2022-08-23T08:07:20.695Z,99861.96
2022-08-23T08:09:49.026Z,99859.73
2022-08-23T08:12:16.329Z,99861.67
2022-08-23T08:14:43.494Z,99865.65
2022-08-23T08:17:11.158Z,99869.05
2022-08-23T08:19:38.592Z,99872.09
2022-08-23T08:22:18.856Z,99871.26
2022-08-23T08:24:45.603Z,99873.45
2022-08-23T08:27:12.320Z,99877.55
2022-08-23T08:29:50.308Z,99877.23
2022-08-23T08:32:18.881Z,99876.70
2022-08-23T08:34:46.488Z,99878.87
2022-08-23T08:38:12.974Z,99875.54
2022-08-23T08:40:41.762Z,99880.30
2022-08-23T08:43:29.972Z,99882.44
2022-08-23T08:46:23.991Z,99882.83
2022-08-23T08:48:58.393Z,99886.10
2022-08-23T08:51:51.272Z,99888.27
2022-08-23T08:54:33.548Z,99890.19
2022-08-23T08:57:07.679Z,99889.63
2022-08-23T08:59:40.132Z,99889.16
2022-08-23T09:02:32.465Z,99887.82
2022-08-23T09:05:12.602Z,99887.58
2022-08-23T09:07:54.490Z,99892.76
2022-08-23T09:10:47.011Z,99896.51
2022-08-23T09:13:53.211Z,99898.76
2022-08-23T09:16:38.360Z,99896.92
2022-08-23T09:19:07.879Z,99901.02
2022-08-23T09:22:06.724Z,99899.89
2022-08-23T09:24:36.781Z,99900.73
2022-08-23T09:27:04.270Z,99900.53
2022-08-23T09:29:34.238Z,99896.48
2022-08-23T09:32:07.932Z,99894.55
2022-08-23T09:34:43.076Z,99892.23
2022-08-23T09:37:24.228Z,99891.55
2022-08-23T09:40:23.499Z,99889.66
2022-08-23T09:43:22.851Z,99890.65
2022-08-23T09:45:50.821Z,99895.58
2022-08-23T09:48:40.317Z,99897.02
2022-08-23T09:51:42.897Z,99895.37
2022-08-23T09:54:26.060Z,99896.02
2022-08-23T09:57:24.110Z,99892.69
2022-08-23T09:59:56.144Z,99893.48
2022-08-23T10:02:34.796Z,99895.08
2022-08-23T10:05:35.304Z,99893.69
2022-08-23T10:08:10.745Z,99893.78
2022-08-23T10:10:53.328Z,99896.54
2022-08-23T10:13:26.432Z,99896.36
2022-08-23T10:16:40.375Z,99901.61
2022-08-23T10:19:36.166Z,99900.15
2022-08-23T10:22:32.940Z,99903.25
2022-08-23T10:25:17.940Z,99905.73
2022-08-23T10:28:24.775Z,99898.05
2022-08-23T10:31:08.410Z,99899.91
2022-08-23T10:33:59.936Z,99905.73
2022-08-23T10:36:44.552Z,99902.69
2022-08-23T10:40:10.118Z,99898.73
2022-08-23T10:43:27.380Z,99900.20
2022-08-23T10:46:01.055Z,99898.69
2022-08-23T10:48:41.319Z,99895.58
2022-08-23T10:51:31.273Z,99896.98
2022-08-23T10:54:45.538Z,99896.99
2022-08-23T10:57:37.144Z,99896.63
2022-08-23T11:00:08.571Z,99899.48
2022-08-23T11:02:49.237Z,99899.34
2022-08-23T11:05:35.082Z,99901.59
2022-08-23T11:08:12.634Z,99905.52
2022-08-23T11:10:40.134Z,99906.05
2022-08-23T11:13:21.020Z,99906.84
2022-08-23T11:16:07.198Z,99909.02
2022-08-23T11:18:45.124Z,99908.11
2022-08-23T11:21:33.139Z,99905.86
2022-08-23T11:24:01.900Z,99909.89
2022-08-23T11:26:29.878Z,99908.63
2022-08-23T11:29:15.062Z,99910.64
2022-08-23T11:31:56.197Z,99910.41
2022-08-23T11:34:35.383Z,99903.76
2022-08-23T11:37:54.722Z,99910.02
2022-08-23T11:40:51.736Z,99904.95
2022-08-23T11:43:39.910Z,99909.98
2022-08-23T11:46:36.294Z,99906.13
2022-08-23T11:49:49.850Z,99909.04
2022-08-23T11:52:58.131Z,99911.80
2022-08-23T11:55:52.915Z,99906.05
2022-08-23T11:58:34.412Z,99910.96
2022-08-23T12:01:14.948Z,99912.48
2022-08-23T12:04:11.366Z,99912.34
2022-08-23T12:07:01.930Z,99912.32
2022-08-23T12:09:32.303Z,99911.05
2022-08-23T12:12:06.679Z,99914.04
2022-08-23T12:14:59.415Z,99920.22
2022-08-23T12:17:49.490Z,99923.09
2022-08-23T12:20:29.550Z,99924.80
2022-08-23T12:23:13.312Z,99928.45
2022-08-23T12:25:43.698Z,99930.95
2022-08-23T12:28:39.745Z,99931.27
2022-08-23T12:31:46.342Z,99935.23
2022-08-23T12:34:59.186Z,99941.27
2022-08-23T12:37:59.890Z,99938.54
2022-08-23T12:40:44.411Z,99936.27
2022-08-23T12:43:53.544Z,99934.17
2022-08-23T12:46:45.106Z,99929.63
2022-08-23T12:49:48.068Z,99923.73
2022-08-23T12:52:17.814Z,99922.92
2022-08-23T12:54:57.331Z,99918.20
2022-08-23T12:57:37.608Z,99919.42
2022-08-23T13:00:22.213Z,99917.85
2022-08-23T13:03:41.395Z,99923.89
2022-08-23T13:06:29.742Z,99927.33
2022-08-23T13:09:05.723Z,99924.79
2022-08-23T13:11:49.648Z,99926.27
2022-08-23T13:14:39.159Z,99927.52
2022-08-23T13:17:20.235Z,99926.80
2022-08-23T13:20:11.962Z,99929.02
2022-08-23T13:23:20.547Z,99931.69
2022-08-23T13:25:59.728Z,99929.58
2022-08-23T13:28:38.017Z,99927.02
2022-08-23T13:31:10.730Z,99927.91
2022-08-23T13:58:28.579Z,99927.56
2022-08-23T14:14:45.771Z,99923.17
2022-08-23T14:17:30.975Z,99926.91
2022-08-23T14:23:11.848Z,99928.56
2022-08-23T14:25:43.775Z,99925.61
2022-08-23T14:28:29.654Z,99927.06
2022-08-23T14:30:59.784Z,99927.48
2022-08-23T14:34:02.003Z,99928.88
2022-08-23T14:38:00.296Z,99929.07
2022-08-23T14:39:43.715Z,99930.65
2022-08-23T14:42:24.400Z,99929.16
2022-08-23T14:44:55.025Z,99930.30
2022-08-23T14:47:39.455Z,99928.63
2022-08-23T14:50:14.821Z,99927.90
2022-08-23T14:52:47.537Z,99926.94
2022-08-23T14:55:15.325Z,99927.36
2022-08-23T14:57:43.073Z,99927.50
2022-08-23T15:00:13.567Z,99929.73
2022-08-23T15:02:50.735Z,99924.58
2022-08-23T15:05:21.340Z,99925.52
2022-08-23T15:07:49.329Z,99927.33
2022-08-23T15:13:28.748Z,99927.15
2022-08-23T15:16:05.400Z,99922.04
2022-08-23T15:18:36.719Z,99923.17
2022-08-23T15:21:48.495Z,99923.95
2022-08-23T15:24:39.955Z,99919.73
2022-08-23T15:27:25.934Z,99916.71
2022-08-23T15:30:15.378Z,99918.73
2022-08-23T15:32:56.902Z,99918.92
2022-08-23T15:35:39.242Z,99916.73
2022-08-23T15:38:08.951Z,99915.27
2022-08-23T15:40:36.600Z,99913.59
2022-08-23T15:43:04.594Z,99915.31
2022-08-23T17:30:24.545Z,99972.47
2022-08-23T17:32:56.114Z,99974.34
2022-08-23T17:35:33.840Z,99977.84
2022-08-23T17:38:10.419Z,99980.23
2022-08-23T17:40:49.809Z,99981.69
2022-08-23T17:43:33.416Z,99987.86
2022-08-23T17:47:14.047Z,99984.35
2022-08-23T17:50:00.602Z,99986.36
2022-08-23T17:57:07.154Z,99993.73
2022-08-23T17:59:35.210Z,99995.59
2022-08-23T18:02:07.544Z,99998.82
2022-08-23T18:04:57.140Z,99999.86
2022-08-23T18:07:30.170Z,99995.36
2022-08-23T18:10:31.967Z,99999.45
2022-08-23T18:13:38.671Z,99997.46
2022-08-23T18:17:11.406Z,99998.07
2022-08-23T18:19:55.389Z,100004.79
2022-08-23T18:22:45.793Z,100007.14
2022-08-23T18:25:50.575Z,100011.95
2022-08-23T18:28:33.755Z,100013.95
2022-08-23T18:31:08.240Z,100016.50
2022-08-23T18:33:46.363Z,100010.59
2022-08-23T18:36:15.199Z,100011.73
2022-08-23T18:38:47.927Z,100019.91
2022-08-23T18:41:20.311Z,100021.41
2022-08-23T18:43:55.154Z,100025.48
2022-08-23T18:47:11.434Z,100029.41
2022-08-23T18:50:02.736Z,100032.54
2022-08-23T18:52:58.466Z,100031.45
2022-08-23T18:55:36.243Z,100043.83
2022-08-23T18:58:14.045Z,100045.77
2022-08-23T19:01:24.989Z,100041.63
2022-08-23T19:04:04.626Z,100042.89
2022-08-23T19:06:32.228Z,100045.88
2022-08-23T19:09:00.788Z,100045.17
2022-08-23T19:11:33.070Z,100045.16
2022-08-23T19:14:12.397Z,100044.58
2022-08-23T19:16:45.671Z,100044.61
2022-08-23T19:19:18.817Z,100046.38
2022-08-23T19:21:46.395Z,100046.09
2022-08-23T19:24:16.921Z,100046.44
2022-08-23T19:26:57.287Z,100044.13
2022-08-23T19:29:25.671Z,100050.31
2022-08-23T19:32:06.025Z,100050.86
2022-08-23T19:34:38.846Z,100054.11
2022-08-23T19:37:18.593Z,100054.90
2022-08-23T19:39:51.807Z,100053.92
2022-08-23T19:42:20.409Z,100052.36
2022-08-23T19:44:50.810Z,100052.15
2022-08-23T19:47:19.733Z,100054.67
2022-08-23T19:49:48.945Z,100051.86
2022-08-23T19:52:47.267Z,100055.45
2022-08-23T19:55:47.566Z,100063.20
2022-08-23T19:59:04.330Z,100064.41
2022-08-23T20:02:01.257Z,100066.10
2022-08-23T20:05:06.482Z,100070.84
2022-08-23T20:08:31.421Z,100070.20
2022-08-23T20:11:17.766Z,100073.52
2022-08-23T20:14:07.077Z,100077.21
2022-08-23T20:16:41.686Z,100076.27
2022-08-23T20:19:11.633Z,100078.11
2022-08-23T20:22:16.356Z,100085.45
2022-08-23T20:24:52.142Z,100082.59
2022-08-23T20:28:08.446Z,100085.83
2022-08-23T20:31:09.775Z,100085.73
2022-08-23T20:33:55.650Z,100087.55
2022-08-23T20:36:34.480Z,100095.00
2022-08-23T20:39:07.604Z,100096.45
2022-08-23T20:42:14.497Z,100097.33
2022-08-23T20:44:59.097Z,100098.56
2022-08-23T20:47:51.885Z,100098.95
2022-08-23T20:51:02.910Z,100097.60
2022-08-23T20:53:49.560Z,100097.41
2022-08-23T20:56:35.260Z,100101.21
2022-08-23T20:59:12.679Z,100101.67
2022-08-23T21:01:45.502Z,100097.91
2022-08-23T21:04:29.345Z,100097.02
2022-08-23T21:07:00.943Z,100094.56
2022-08-23T21:09:31.674Z,100094.56
2022-08-23T21:12:21.530Z,100088.52
2022-08-23T21:14:57.208Z,100085.38
2022-08-23T21:17:27.803Z,100085.02
2022-08-23T21:20:00.137Z,100082.35
2022-08-23T21:22:32.124Z,100082.90
2022-08-23T21:24:59.880Z,100080.93
2022-08-23T21:27:30.346Z,100076.06
2022-08-23T21:29:57.572Z,100075.26
2022-08-23T21:32:32.529Z,100077.09
2022-08-23T21:35:06.830Z,100077.70
2022-08-23T21:37:57.460Z,100075.80
2022-08-23T21:40:34.708Z,100073.81
2022-08-23T21:43:10.695Z,100073.66
2022-08-23T21:45:41.522Z,100076.69
2022-08-23T21:48:20.909Z,100075.84
2022-08-23T21:50:48.172Z,100073.70
2022-08-23T21:53:23.161Z,100076.88
2022-08-23T21:56:03.628Z,100077.54
2022-08-23T21:58:30.915Z,100072.52
2022-08-23T22:01:08.298Z,100073.80
2022-08-23T22:03:39.974Z,100071.18
2022-08-23T22:06:13.662Z,100072.40
2022-08-23T22:08:54.020Z,100070.22
2022-08-23T22:11:24.140Z,100076.74
2022-08-23T22:14:01.000Z,100072.16
2022-08-23T22:16:31.002Z,100071.84
2022-08-23T22:19:07.067Z,100075.36
2022-08-23T22:21:35.675Z,100067.64
2022-08-23T22:24:07.892Z,100068.70
2022-08-23T22:26:34.873Z,100068.92
2022-08-23T22:29:02.055Z,100063.77
2022-08-23T22:31:44.343Z,100060.59
2022-08-23T22:34:15.431Z,100060.62
2022-08-23T22:36:42.954Z,100066.16
2022-08-23T22:39:11.847Z,100065.17
2022-08-23T22:41:40.000Z,100062.48
2022-08-23T22:44:07.002Z,100065.71
2022-08-23T22:46:38.133Z,100062.30
2022-08-23T22:49:05.851Z,100060.98
2022-08-23T22:51:37.527Z,100065.27
2022-08-23T22:54:10.418Z,100063.94
2022-08-23T22:56:43.220Z,100065.45
2022-08-23T22:59:10.811Z,100063.36
2022-08-23T23:01:44.141Z,100066.44
2022-08-23T23:04:14.269Z,100069.02
2022-08-23T23:06:41.969Z,100070.45
2022-08-23T23:09:11.947Z,100067.98
2022-08-23T23:11:40.624Z,100066.05
2022-08-23T23:14:24.171Z,100062.91
2022-08-23T23:16:58.678Z,100060.84
2022-08-23T23:19:45.750Z,100063.05
2022-08-23T23:22:19.783Z,100061.23
2022-08-23T23:24:49.553Z,100063.51
2022-08-23T23:27:27.055Z,100063.16
2022-08-23T23:29:54.785Z,100063.10
2022-08-23T23:32:22.274Z,100064.66
2022-08-23T23:35:00.671Z,100063.55
2022-08-23T23:37:30.717Z,100068.48
2022-08-23T23:39:58.634Z,100072.55
2022-08-23T23:42:30.260Z,100070.17
2022-08-23T23:44:58.090Z,100075.69
2022-08-23T23:47:25.154Z,100073.58
2022-08-23T23:49:51.995Z,100071.71
2022-08-23T23:52:19.029Z,100069.14
2022-08-23T23:54:45.850Z,100065.45
2022-08-23T23:57:12.835Z,100066.06
